Time;durP1;ratioP1;P1;durP2;ratioP2;P2;SDS_P1;SDS_P2;PMS_P1;PMS_P2;Temp;Humidity;BMP_temperature;BMP_pressure;BME280_temperature;BME280_humidity;BME280_pressure;Samples;Min_cycle;Max_cycle;Signal;HPM_P1;HPM_P2
2022/10/26 00:02:07;;;;;;;3.35;2.17;;;13.20;59.20;;;11.99;61.05;101432.09;12248320;19;20003;-85
2022/10/26 00:06:16;;;;;;;2.67;1.73;;;13.10;59.20;;;12.12;61.08;101473.34;12247932;19;20026;-85
2022/10/26 00:10:20;;;;;;;2.08;1.88;;;13.10;59.30;;;11.95;61.13;101450.59;12253060;19;20023;-85
2022/10/26 00:14:22;;;;;;;2.03;1.90;;;13.00;59.30;;;11.87;61.20;101438.81;12260112;19;20018;-85
2022/10/26 00:18:24;;;;;;;3.35;1.92;;;12.90;59.40;;;11.98;61.13;101473.16;12254203;19;20018;-85
2022/10/26 00:22:26;;;;;;;3.10;1.60;;;12.80;59.40;;;11.92;61.20;101470.84;12261400;19;20089;-84
2022/10/26 00:26:28;;;;;;;4.10;1.75;;;12.80;59.40;;;11.58;61.18;101425.31;12260726;19;20018;-85
2022/10/26 00:30:30;;;;;;;3.58;2.05;;;12.70;59.40;;;11.65;61.13;101438.97;12256248;19;20078;-85
2022/10/26 00:34:31;;;;;;;4.68;2.00;;;12.70;59.50;;;11.65;61.06;101455.50;12260416;19;20031;-85
2022/10/26 00:38:33;;;;;;;2.40;2.08;;;12.60;59.40;;;11.71;61.37;101475.28;12277797;19;20006;-85
2022/10/26 00:42:35;;;;;;;4.25;2.03;;;12.60;59.50;;;11.41;61.15;101439.22;12260326;19;20014;-85
2022/10/26 00:46:37;;;;;;;2.30;1.75;;;12.60;59.50;;;11.56;61.34;101462.94;12260781;19;20074;-85
2022/10/26 00:50:43;;;;;;;3.65;1.92;;;12.50;59.50;;;11.55;61.21;101476.94;12290175;19;20010;-86
2022/10/26 00:54:45;;;;;;;2.08;1.88;;;12.70;59.60;;;11.33;61.48;101451.81;12301033;19;20018;-86
2022/10/26 00:58:47;;;;;;;3.97;1.92;;;12.50;59.60;;;11.61;61.37;101494.97;12293357;19;20018;-85
2022/10/26 01:02:51;;;;;;;2.47;2.08;;;12.40;59.60;;;11.47;61.33;101478.16;12290766;19;20007;-86
2022/10/26 01:06:53;;;;;;;2.03;1.88;;;12.40;59.50;;;11.49;61.36;101486.78;12290525;19;20022;-86
2022/10/26 01:11:00;;;;;;;2.15;2.05;;;12.40;59.40;;;11.09;61.16;101414.56;12276113;19;20042;-86
2022/10/26 01:15:02;;;;;;;2.42;2.17;;;12.40;59.30;;;11.34;61.21;101457.88;12272316;19;20042;-85
2022/10/26 01:19:22;;;;;;;2.78;2.28;;;12.40;59.20;;;11.34;61.21;101470.94;12274240;19;20011;-86
2022/10/26 01:24:11;;;;;;;2.05;1.95;;;12.30;59.10;;;11.24;61.11;101471.38;12288104;19;20014;-86
2022/10/26 01:28:35;;;;;;;4.75;2.17;;;12.20;59.10;;;11.17;61.32;101461.28;12286509;19;20015;-86
2022/10/26 01:33:04;;;;;;;1.98;1.75;;;12.20;59.40;;;11.21;61.40;101470.69;12289128;19;20010;-86
2022/10/26 01:37:12;;;;;;;2.08;1.80;;;12.20;59.40;;;11.13;61.43;101451.91;12283223;19;20024;-86
2022/10/26 01:41:30;;;;;;;2.28;2.08;;;12.10;59.40;;;11.05;61.47;101452.25;12270351;19;20018;-86
2022/10/26 01:45:36;;;;;;;2.88;2.25;;;12.10;59.50;;;11.06;61.36;101446.91;12267612;19;20007;-86
2022/10/26 01:49:46;;;;;;;3.78;1.85;;;12.10;59.50;;;11.07;61.34;101451.25;12267570;19;20048;-86
2022/10/26 01:53:48;;;;;;;2.78;2.28;;;12.30;59.50;;;11.08;61.34;101450.31;12262685;19;20369;-86
2022/10/26 01:57:51;;;;;;;3.53;2.30;;;12.00;59.30;;;10.94;61.34;101439.66;12265342;19;20026;-86
2022/10/26 02:02:53;;;;;;;4.72;1.95;;;12.00;59.30;;;10.99;61.31;101455.09;12265050;19;20011;-85
2022/10/26 02:07:37;;;;;;;1.80;1.70;;;12.00;59.50;;;10.97;61.53;101452.56;12262636;19;20017;-86
2022/10/26 02:11:45;;;;;;;2.72;1.75;;;11.90;59.60;;;10.94;61.53;101444.03;12265929;19;20058;-86
2022/10/26 02:15:53;;;;;;;2.10;2.00;;;12.20;59.50;;;10.94;61.53;101454.50;12265486;19;20014;-85
2022/10/26 02:20:10;;;;;;;3.42;2.35;;;11.90;59.30;;;10.84;61.21;101446.22;12266607;19;20068;-86
2022/10/26 02:24:15;;;;;;;2.60;1.98;;;11.90;59.40;;;10.86;61.67;101444.38;12265816;19;20019;-86
2022/10/26 02:28:22;;;;;;;2.15;1.85;;;11.90;59.50;;;10.85;61.58;101448.75;12261928;19;20454;-85
2022/10/26 02:32:29;;;;;;;3.17;2.05;;;11.80;59.50;;;10.82;61.42;101453.25;12259025;19;20014;-85
2022/10/26 02:36:35;;;;;;;1.95;1.85;;;11.80;59.50;;;10.79;61.62;101435.09;12259006;19;20018;-86
2022/10/26 02:40:38;;;;;;;4.10;2.05;;;11.80;59.30;;;10.75;61.29;101436.19;12261151;19;20018;-85
2022/10/26 02:45:04;;;;;;;2.30;2.10;;;11.80;59.10;;;10.72;61.29;101449.34;12261754;19;20006;-86
2022/10/26 02:49:06;;;;;;;3.47;1.77;;;11.70;59.10;;;10.44;61.56;101403.56;12257482;19;20030;-86
2022/10/26 02:53:33;;;;;;;1.85;1.60;;;11.70;59.60;;;10.53;61.47;101437.13;12263607;19;20006;-85
2022/10/26 02:57:38;;;;;;;2.50;2.15;;;11.70;59.50;;;10.34;61.71;101400.53;12258616;19;20365;-85
2022/10/26 03:01:41;;;;;;;2.17;1.98;;;11.60;59.50;;;10.40;61.62;101415.06;12259953;19;20014;-86
2022/10/26 03:05:43;;;;;;;4.47;2.40;;;12.00;59.80;;;10.60;61.68;101443.75;12260576;19;20014;-86
2022/10/26 03:09:44;;;;;;;2.05;1.92;;;11.60;59.50;;;10.65;61.55;101456.63;12255692;19;20552;-86
2022/10/26 03:13:46;;;;;;;2.53;2.33;;;11.60;59.40;;;10.63;61.63;101459.28;12257741;19;20014;-85
2022/10/26 03:17:48;;;;;;;4.78;3.03;;;11.60;59.40;;;10.60;61.58;101462.03;12255439;19;20014;-85
2022/10/26 03:21:50;;;;;;;2.28;2.00;;;11.60;59.20;;;10.39;61.53;101442.91;12261215;19;20026;-85
2022/10/26 03:25:56;;;;;;;2.10;1.90;;;11.60;59.10;;;10.40;61.33;101449.00;12259995;19;20011;-86
2022/10/26 03:29:58;;;;;;;1.75;1.60;;;11.50;59.00;;;10.43;61.55;101464.53;12256213;19;20018;-86
2022/10/26 03:34:00;;;;;;;2.20;2.00;;;11.40;59.00;;;10.02;61.56;101398.38;12258625;19;20010;-86
2022/10/26 03:38:02;;;;;;;2.22;2.03;;;11.40;59.20;;;10.33;61.53;101466.69;12255822;19;20014;-86
2022/10/26 03:42:04;;;;;;;2.90;2.13;;;11.40;59.40;;;10.25;61.63;101449.63;12258303;19;20118;-86
2022/10/26 03:46:06;;;;;;;2.95;1.90;;;11.30;59.60;;;10.38;61.73;101476.94;12267638;19;20006;-86
2022/10/26 03:50:08;;;;;;;2.17;1.98;;;11.40;59.80;;;10.35;61.60;101464.00;12269294;19;20051;-86
2022/10/26 03:54:10;;;;;;;2.33;2.13;;;11.40;59.80;;;10.38;61.62;101469.94;12271899;19;20018;-86
2022/10/26 03:58:12;;;;;;;2.20;2.00;;;11.40;59.70;;;10.11;61.48;101427.56;12268159;19;20105;-85
2022/10/26 04:02:14;;;;;;;4.15;2.15;;;11.40;59.70;;;10.09;61.55;101429.38;12272238;19;20067;-85
2022/10/26 04:06:15;;;;;;;2.05;1.75;;;11.30;59.60;;;10.00;61.39;101421.94;12269088;19;20086;-86
2022/10/26 04:10:17;;;;;;;4.03;2.10;;;11.30;59.50;;;10.18;61.55;101457.72;12266595;19;20023;-86
2022/10/26 04:14:18;;;;;;;8.10;2.17;;;11.30;59.60;;;10.05;61.64;101446.09;12267289;19;20097;-86
2022/10/26 04:18:20;;;;;;;2.35;2.15;;;11.50;59.80;;;9.94;61.70;101437.84;12262560;19;20026;-85
2022/10/26 04:22:22;;;;;;;2.55;1.95;;;11.20;59.60;;;10.11;61.71;101460.63;12269076;19;20017;-85
2022/10/26 04:26:24;;;;;;;3.45;1.92;;;11.20;59.70;;;10.01;61.64;101451.47;12265512;19;20370;-85
2022/10/26 04:30:29;;;;;;;4.95;1.90;;;11.20;59.80;;;10.07;61.71;101472.97;12265076;19;20353;-86
2022/10/26 04:34:31;;;;;;;5.75;1.98;;;11.10;59.80;;;9.95;61.65;101458.66;12272153;19;20011;-86
2022/10/26 04:38:32;;;;;;;1.92;1.83;;;11.10;59.80;;;10.06;61.71;101479.09;12265637;19;20479;-86
2022/10/26 04:42:42;;;;;;;1.98;1.52;;;11.10;59.90;;;10.00;61.73;101476.72;12271999;19;20015;-86
2022/10/26 04:46:43;;;;;;;2.17;1.92;;;11.20;60.00;;;9.91;61.71;101464.03;12268775;19;20464;-86
2022/10/26 04:50:46;;;;;;;2.40;2.20;;;11.10;60.10;;;9.87;61.69;101462.47;12265474;19;20010;-86
2022/10/26 04:54:48;;;;;;;3.65;1.90;;;11.00;60.10;;;9.82;61.68;101452.22;12268589;19;20037;-86
2022/10/26 04:58:52;;;;;;;3.22;1.85;;;11.00;60.00;;;9.91;61.83;101466.66;12263870;19;20045;-85
2022/10/26 05:03:06;;;;;;;2.70;1.60;;;11.00;60.00;;;9.85;61.84;101457.31;12263876;19;20014;-86
2022/10/26 05:07:07;;;;;;;2.38;1.80;;;11.00;60.00;;;9.70;61.95;101442.31;12265071;19;20023;-86
2022/10/26 05:11:10;;;;;;;1.75;1.65;;;11.10;60.20;;;9.86;61.83;101455.59;12265013;19;20058;-85
2022/10/26 05:15:13;;;;;;;2.50;2.30;;;10.90;60.00;;;9.88;61.85;101466.78;12267910;19;20566;-86
2022/10/26 05:19:15;;;;;;;1.77;1.67;;;11.00;59.90;;;9.84;61.85;101452.19;12270143;19;20011;-86
2022/10/26 05:23:17;;;;;;;1.98;1.88;;;10.90;59.90;;;9.80;61.84;101453.19;12270238;19;20015;-85
2022/10/26 05:27:19;;;;;;;3.08;2.00;;;11.20;60.00;;;9.78;61.82;101455.88;12271712;19;20029;-85
2022/10/26 05:31:21;;;;;;;2.33;2.13;;;11.00;59.70;;;9.84;61.91;101470.44;12267946;19;20018;-85
2022/10/26 05:35:23;;;;;;;1.90;1.67;;;10.90;59.60;;;9.83;61.75;101468.72;12276116;19;20059;-86
2022/10/26 05:39:24;;;;;;;1.85;1.73;;;10.90;59.50;;;9.69;61.79;101459.72;12275461;19;20014;-85
2022/10/26 05:43:26;;;;;;;2.15;1.67;;;10.90;59.50;;;9.69;61.94;101464.06;12270733;19;20022;-85
2022/10/26 05:47:28;;;;;;;1.85;1.70;;;10.80;59.40;;;9.41;61.75;101419.97;12264133;19;20511;-85
2022/10/26 05:51:33;;;;;;;2.22;1.80;;;10.90;59.50;;;9.43;61.59;101431.22;12270253;19;20014;-85
2022/10/26 05:55:35;;;;;;;2.85;2.22;;;10.80;59.30;;;9.66;61.72;101483.28;12265853;19;20520;-85
2022/10/26 05:59:37;;;;;;;2.10;1.90;;;10.80;59.60;;;9.34;61.63;101434.16;12272115;19;20022;-85
2022/10/26 06:04:14;;;;;;;1.70;1.60;;;10.70;59.20;;;9.49;61.82;101475.28;12271529;19;20018;-85
2022/10/26 06:08:16;;;;;;;1.95;1.55;;;10.60;59.20;;;9.51;61.84;101484.75;12265813;19;20416;-86
2022/10/26 06:12:18;;;;;;;1.88;1.77;;;10.60;59.30;;;9.43;61.62;101483.34;12269092;19;20456;-85
2022/10/26 06:16:51;;;;;;;1.70;1.60;;;10.60;59.20;;;9.36;61.64;101495.75;12267620;19;20017;-86
2022/10/26 06:21:42;;;;;;;2.90;1.40;;;10.50;59.40;;;9.30;61.75;101488.16;12267937;19;19999;-88
2022/10/26 06:26:11;;;;;;;1.50;1.40;;;10.40;59.50;;;9.28;61.79;101485.59;12266372;19;20015;-85
2022/10/26 06:30:13;;;;;;;1.77;1.67;;;10.40;59.80;;;9.39;61.73;101494.78;12263397;19;20011;-86
2022/10/26 06:34:36;;;;;;;4.05;1.48;;;10.80;59.80;;;9.33;61.79;101497.63;12268879;19;20017;-83
2022/10/26 06:38:40;;;;;;;1.70;1.60;;;10.50;59.60;;;9.15;61.87;101470.50;12265689;19;20011;-85
2022/10/26 06:42:42;;;;;;;2.25;1.40;;;10.50;59.50;;;9.33;61.94;101498.47;12267104;19;20018;-84
2022/10/26 06:47:06;;;;;;;1.35;1.25;;;10.40;59.40;;;9.21;61.92;101497.19;12270400;19;20013;-86
2022/10/26 06:51:13;;;;;;;3.53;1.42;;;10.40;59.40;;;9.12;61.70;101479.25;12262679;19;20018;-86
2022/10/26 06:55:16;;;;;;;1.60;1.50;;;10.40;59.50;;;9.28;61.77;101510.81;12267126;19;20006;-84
2022/10/26 06:59:52;;;;;;;1.38;1.27;;;10.40;59.60;;;9.14;61.96;101508.72;12265873;19;20051;-84
2022/10/26 07:03:54;;;;;;;1.50;1.40;;;10.40;59.70;;;9.27;61.83;101509.97;12263265;19;20031;-84
2022/10/26 07:07:56;;;;;;;2.17;1.20;;;10.40;59.80;;;9.17;62.09;101502.56;12264800;19;20566;-84
2022/10/26 07:11:57;;;;;;;1.60;1.50;;;10.40;60.00;;;9.29;62.05;101529.03;12262589;19;20023;-84
2022/10/26 07:15:59;;;;;;;2.47;1.60;;;10.50;60.20;;;9.08;62.15;101488.13;12264226;19;20567;-85
2022/10/26 07:20:01;;;;;;;2.67;1.60;;;10.40;60.30;;;9.31;62.12;101519.38;12270030;19;20028;-85
2022/10/26 07:24:03;;;;;;;2.78;1.70;;;10.40;60.50;;;9.25;62.17;101503.13;12272588;19;20029;-84
2022/10/26 07:28:08;;;;;;;1.33;1.23;;;10.50;60.80;;;9.35;62.36;101522.72;12267987;19;20014;-85
2022/10/26 07:32:10;;;;;;;1.23;1.15;;;10.50;61.00;;;9.37;62.40;101514.84;12271167;19;20018;-85
2022/10/26 07:36:12;;;;;;;2.67;1.65;;;10.80;61.40;;;9.45;62.40;101521.47;12268854;19;20021;-85
2022/10/26 07:40:14;;;;;;;2.22;2.03;;;10.60;61.50;;;9.38;62.29;101500.91;12270996;19;20010;-84
2022/10/26 07:44:15;;;;;;;7.22;2.03;;;10.70;61.90;;;9.50;62.51;101506.53;12267651;19;20006;-85
2022/10/26 07:48:17;;;;;;;3.17;1.48;;;10.70;62.40;;;9.37;62.42;101466.19;12262419;19;20021;-84
2022/10/26 07:52:19;;;;;;;2.20;2.00;;;10.80;62.80;;;9.35;62.49;101456.72;12269644;19;20078;-84
2022/10/26 07:56:21;;;;;;;1.75;1.65;;;10.90;63.30;;;9.64;62.66;101498.16;12266990;19;20014;-83
2022/10/26 08:00:24;;;;;;;1.90;1.80;;;11.00;63.90;;;9.72;62.70;101490.88;12266623;19;20010;-84
2022/10/26 08:04:25;;;;;;;2.10;1.92;;;11.00;64.00;;;9.96;62.94;101524.72;12267288;19;20472;-84
2022/10/26 08:08:27;;;;;;;1.98;1.88;;;11.10;64.20;;;10.04;62.86;101513.97;12265355;19;20039;-85
2022/10/26 08:12:29;;;;;;;2.00;1.90;;;11.50;65.00;;;10.16;63.12;101522.16;12263193;19;20010;-85
2022/10/26 08:16:30;;;;;;;2.10;2.00;;;11.40;65.60;;;10.27;63.04;101520.88;12257783;19;20014;-84
2022/10/26 08:20:32;;;;;;;2.80;2.58;;;11.50;65.90;;;10.44;63.14;101522.81;12260072;19;20014;-84
2022/10/26 08:24:34;;;;;;;2.00;1.90;;;11.80;66.30;;;10.61;63.31;101534.28;12261105;19;20462;-84
2022/10/26 08:28:37;;;;;;;2.42;2.20;;;11.80;66.60;;;10.75;63.33;101535.44;12259898;19;20022;-84
2022/10/26 08:32:41;;;;;;;2.15;2.05;;;11.90;67.10;;;10.86;63.21;101528.00;12267546;19;20330;-84
2022/10/26 08:36:42;;;;;;;2.10;2.00;;;12.00;67.10;;;10.88;63.39;101510.47;12268231;19;20007;-83
2022/10/26 08:40:44;;;;;;;2.20;1.85;;;12.20;67.40;;;11.10;63.42;101522.59;12268591;19;20024;-83
2022/10/26 08:44:49;;;;;;;2.50;2.10;;;12.30;67.40;;;11.26;63.57;101521.84;12266315;19;20014;-83
2022/10/26 08:48:57;;;;;;;2.35;2.15;;;12.40;67.70;;;11.38;63.64;101517.81;12261942;19;20017;-83
2022/10/26 08:53:16;;;;;;;2.38;2.17;;;12.80;69.00;;;11.62;63.78;101520.22;12261380;19;20014;-83
2022/10/26 08:57:34;;;;;;;3.58;2.15;;;12.80;69.20;;;11.77;63.82;101516.88;12257972;19;20025;-83
2022/10/26 09:01:36;;;;;;;2.13;1.92;;;13.00;70.10;;;12.06;63.99;101512.88;12265183;19;20532;-83
2022/10/26 09:06:11;;;;;;;1.95;1.85;;;13.30;70.40;;;12.30;64.10;101521.31;12263773;19;20014;-83
2022/10/26 09:10:39;;;;;;;2.08;1.88;;;13.50;71.00;;;12.51;64.26;101511.53;12261852;19;20468;-83
2022/10/26 09:15:21;;;;;;;2.17;1.98;;;13.80;71.60;;;12.75;64.50;101511.22;12262525;19;20031;-83
2022/10/26 09:19:57;;;;;;;2.65;2.38;;;14.10;71.70;;;13.05;64.62;101514.00;12264504;19;20010;-83
2022/10/26 09:24:05;;;;;;;;;;;14.40;72.20;;;13.36;64.51;101528.13;12262627;19;20089;-83
2022/10/26 09:28:17;;;;;;;1.75;1.65;;;14.70;71.50;;;13.56;64.36;101524.44;12258399;19;19935;-85
2022/10/26 09:32:37;;;;;;;2.03;1.80;;;14.90;71.00;;;13.75;64.75;101513.75;12262480;19;20007;-84
2022/10/26 09:36:39;;;;;;;1.80;1.70;;;15.20;71.30;;;14.09;64.75;101526.66;12257911;19;20018;-83
2022/10/26 09:40:54;;;;;;;2.15;1.95;;;15.50;71.10;;;14.30;64.85;101529.00;12262120;19;20471;-82
2022/10/26 09:45:04;;;;;;;2.22;2.03;;;15.70;70.80;;;14.51;64.79;101530.38;12259701;19;20018;-82
2022/10/26 09:49:10;;;;;;;1.88;1.77;;;15.90;69.90;;;14.72;64.86;101522.19;12253769;19;20002;-86
2022/10/26 09:53:12;;;;;;;3.13;1.80;;;16.20;69.30;;;14.91;64.84;101528.03;12263791;19;20842;-84
2022/10/26 09:57:17;;;;;;;2.38;1.75;;;16.30;69.30;;;15.13;64.89;101524.94;12260576;19;20022;-83
2022/10/26 10:01:33;;;;;;;2.15;1.95;;;16.50;68.70;;;15.29;64.78;101531.88;12261654;19;20013;-84
2022/10/26 10:05:35;;;;;;;1.85;1.75;;;16.80;68.60;;;15.60;64.92;101536.06;12256643;19;20540;-84
2022/10/26 10:09:37;;;;;;;2.78;2.13;;;17.10;67.90;;;15.76;64.79;101535.97;12255409;19;20014;-86
2022/10/26 10:13:42;;;;;;;3.78;2.30;;;17.30;67.60;;;15.68;64.93;101499.53;12256373;19;20069;-86
2022/10/26 10:17:52;;;;;;;3.83;2.47;;;17.30;67.80;;;16.05;64.85;101528.81;12252615;19;20007;-84
2022/10/26 10:22:00;;;;;;;4.93;3.08;;;17.50;67.10;;;16.28;64.55;101536.06;12255147;19;20079;-85
2022/10/26 10:26:12;;;;;;;6.70;2.80;;;17.70;66.00;;;16.43;64.65;101535.97;12255400;19;20017;-84
2022/10/26 10:30:28;;;;;;;5.28;3.35;;;18.00;65.90;;;16.49;64.52;101514.47;12252018;19;20010;-83
2022/10/26 10:34:32;;;;;;;3.33;2.45;;;17.90;64.10;;;16.71;64.45;101532.31;12256566;19;20042;-85
2022/10/26 10:38:42;;;;;;;4.03;2.17;;;18.00;64.40;;;16.68;64.51;101501.72;12247620;19;20029;-85
2022/10/26 10:42:46;;;;;;;3.55;2.20;;;18.20;65.60;;;16.95;64.48;101525.38;12151825;19;20828;-84
2022/10/26 10:46:47;;;;;;;2.42;2.13;;;18.40;64.60;;;17.15;64.28;101544.28;12152875;19;20734;-85
2022/10/26 10:50:57;;;;;;;3.03;2.65;;;18.40;63.90;;;17.04;64.12;101497.53;12148956;19;21367;-84
2022/10/26 10:55:13;;;;;;;3.47;2.25;;;18.60;62.50;;;17.36;64.00;101532.22;12149842;19;20051;-85
2022/10/26 11:00:00;;;;;;;1.88;1.70;;;18.50;63.30;;;17.42;63.92;101525.66;12146355;19;21030;-85
2022/10/26 11:04:48;;;;;;;1.30;1.27;;;18.80;62.70;;;17.51;63.92;101535.53;12150628;19;20025;-85
2022/10/26 11:09:11;;;;;;;1.70;1.52;;;18.90;61.40;;;17.59;63.78;101530.56;12146053;19;20243;-85
2022/10/26 11:13:30;;;;;;;1.40;1.23;;;19.10;61.70;;;17.59;63.64;101520.00;12151483;19;20018;-84
2022/10/26 11:17:49;;;;;;;3.00;1.40;;;19.00;61.30;;;17.75;63.46;101535.56;12147603;19;20814;-85
2022/10/26 11:21:54;;;;;;;1.50;1.40;;;19.10;61.20;;;17.80;63.67;101535.28;12149505;19;20025;-85
2022/10/26 11:26:08;;;;;;;1.55;1.35;;;19.10;60.90;;;17.86;63.49;101530.38;12147302;19;20018;-84
2022/10/26 11:30:26;;;;;;;1.40;1.30;;;19.00;60.50;;;17.84;63.16;101507.66;12149657;19;20038;-84
2022/10/26 11:34:59;;;;;;;1.55;1.25;;;19.20;60.30;;;17.97;63.11;101521.66;12159638;19;20019;-85
2022/10/26 11:39:37;;;;;;;1.30;1.20;;;19.20;60.60;;;18.07;62.89;101527.97;12154555;19;20046;-85
2022/10/26 11:43:48;;;;;;;1.45;1.20;;;19.40;59.80;;;18.19;63.00;101530.66;12154449;19;20014;-85
2022/10/26 11:47:58;;;;;;;2.38;1.15;;;19.40;59.50;;;18.17;62.95;101516.69;12149602;19;20048;-85
2022/10/26 11:52:16;;;;;;;2.28;1.05;;;19.50;59.90;;;18.30;62.64;101523.59;12155068;19;20022;-85
2022/10/26 11:56:35;;;;;;;0.90;0.90;;;19.60;59.40;;;18.36;62.56;101517.00;12142429;19;20873;-85
2022/10/26 12:00:51;;;;;;;2.58;1.55;;;19.60;59.30;;;18.25;62.66;101485.22;12148074;19;20018;-85
2022/10/26 12:05:02;;;;;;;1.38;1.02;;;19.70;59.70;;;18.47;62.64;101508.25;12150291;19;20018;-85
2022/10/26 12:09:11;;;;;;;1.40;1.10;;;19.70;59.30;;;18.48;62.61;101502.84;12155901;19;20780;-85
2022/10/26 12:13:21;;;;;;;1.30;1.20;;;19.80;59.30;;;18.61;62.22;101516.00;12154846;19;21196;-84
2022/10/26 12:17:46;;;;;;;1.90;1.00;;;19.80;58.30;;;18.57;62.25;101488.91;12144367;19;20014;-85
2022/10/26 12:21:50;;;;;;;1.27;1.10;;;19.80;59.00;;;18.71;62.06;101494.94;12149684;19;20308;-85
2022/10/26 12:26:32;;;;;;;1.95;1.10;;;19.70;58.70;;;18.71;61.96;101500.25;12149346;19;20031;-85
2022/10/26 12:30:35;;;;;;;2.58;0.88;;;19.90;59.10;;;18.76;62.01;101487.53;12144986;19;20680;-85
2022/10/26 12:34:56;;;;;;;1.20;1.05;;;19.90;58.80;;;18.90;61.91;101499.69;12156454;19;20047;-85
2022/10/26 12:38:59;;;;;;;5.43;3.67;;;19.90;58.50;;;18.71;61.77;101452.63;12165641;19;20022;-84
2022/10/26 12:43:22;;;;;;;2.83;2.08;;;20.10;58.40;;;19.00;61.69;101488.25;12161503;19;20019;-85
2022/10/26 12:47:30;;;;;;;1.35;1.25;;;20.10;58.60;;;19.07;61.40;101488.63;12160719;19;20283;-85
2022/10/26 12:51:34;;;;;;;3.00;1.33;;;20.20;58.20;;;19.13;61.76;101489.94;12162219;19;20019;-87
2022/10/26 12:56:04;;;;;;;1.73;1.08;;;20.30;58.70;;;19.12;61.36;101488.25;12158949;19;20484;-85
2022/10/26 13:00:15;;;;;;;1.17;1.08;;;20.20;57.90;;;19.17;61.55;101483.44;12165812;19;20033;-85
2022/10/26 13:04:42;;;;;;;0.80;0.80;;;20.30;57.70;;;19.28;61.45;101487.88;12163443;19;20490;-85
2022/10/26 13:08:50;;;;;;;1.30;0.90;;;20.40;58.30;;;19.28;61.22;101477.28;12155964;19;20015;-85
2022/10/26 13:12:55;;;;;;;1.48;1.38;;;20.30;58.40;;;19.32;61.14;101479.56;12159127;19;20043;-84
2022/10/26 13:17:00;;;;;;;1.00;0.90;;;20.40;58.30;;;19.29;61.19;101463.94;12155180;19;20898;-84
2022/10/26 13:21:21;;;;;;;1.00;1.00;;;20.40;57.90;;;19.34;61.22;101487.41;12155991;19;20014;-85
2022/10/26 13:25:29;;;;;;;0.90;0.90;;;20.50;57.60;;;19.33;60.81;101473.28;12157349;19;20555;-85
2022/10/26 13:29:32;;;;;;;1.73;1.20;;;20.50;57.40;;;19.46;60.80;101486.41;12158686;19;20024;-85
2022/10/26 13:33:39;;;;;;;2.20;1.45;;;20.50;58.10;;;19.44;60.67;101473.31;12160964;19;20117;-84
2022/10/26 13:37:46;;;;;;;1.65;1.13;;;20.50;58.00;;;19.46;60.74;101468.69;12158146;19;20022;-84
2022/10/26 13:41:52;;;;;;;1.25;0.98;;;20.50;58.00;;;19.51;60.67;101478.09;12156747;19;20036;-85
2022/10/26 13:46:00;;;;;;;4.00;1.08;;;20.50;58.30;;;19.55;60.50;101484.81;12155286;19;21296;-84
2022/10/26 13:50:10;;;;;;;0.88;0.70;;;20.60;58.00;;;19.54;60.51;101488.44;12162208;19;20022;-85
2022/10/26 13:54:27;;;;;;;0.95;0.90;;;20.50;57.80;;;19.50;60.66;101484.38;12158036;19;20399;-85
2022/10/26 13:58:42;;;;;;;2.50;1.65;;;20.60;57.80;;;19.53;60.27;101490.25;12149828;19;20394;-85
2022/10/26 14:02:43;;;;;;;3.08;2.20;;;20.60;57.50;;;19.61;60.19;101494.94;12154628;19;20046;-85
2022/10/26 14:06:50;;;;;;;3.13;1.38;;;20.60;58.10;;;19.65;60.34;101506.94;12157791;19;20022;-85
2022/10/26 14:10:56;;;;;;;3.03;1.20;;;20.70;58.10;;;19.59;60.42;101491.56;12155408;19;20029;-86
2022/10/26 14:15:06;;;;;;;1.77;1.00;;;20.70;58.00;;;19.69;60.09;101512.91;12154210;19;20090;-87
2022/10/26 14:19:19;;;;;;;2.67;1.10;;;20.70;57.90;;;19.59;60.19;101483.59;12137738;19;20018;-85
2022/10/26 14:23:54;;;;;;;2.20;1.00;;;20.70;58.20;;;19.66;59.96;101506.03;12151211;19;20018;-84
2022/10/26 14:27:56;;;;;;;3.25;0.88;;;20.60;58.00;;;19.71;60.22;101506.47;12148152;19;20542;-85
2022/10/26 14:31:58;;;;;;;1.17;1.00;;;20.70;58.00;;;19.73;60.21;101509.84;12150886;19;20308;-84
2022/10/26 14:36:00;;;;;;;1.00;0.90;;;20.70;58.20;;;19.65;60.30;101496.34;12147592;19;20058;-85
2022/10/26 14:40:03;;;;;;;3.85;0.90;;;20.70;58.40;;;19.65;59.94;101496.34;12151662;19;20014;-85
2022/10/26 14:44:18;;;;;;;1.25;0.82;;;20.70;58.60;;;19.60;60.01;101499.38;12147854;19;20114;-84
2022/10/26 14:48:23;;;;;;;3.80;2.05;;;20.60;58.90;;;19.47;60.35;101488.09;12146800;19;20615;-85
2022/10/26 14:52:33;;;;;;;1.38;0.90;;;20.60;59.00;;;19.42;60.03;101495.56;12149612;19;20014;-85
2022/10/26 14:56:35;;;;;;;0.85;0.68;;;20.50;58.90;;;19.50;60.16;101529.41;12145560;19;20025;-85
2022/10/26 15:00:36;;;;;;;0.98;0.85;;;20.50;58.90;;;19.36;60.14;101515.47;12147607;19;20498;-84
2022/10/26 15:04:40;;;;;;;0.70;0.70;;;20.40;58.90;;;19.33;60.10;101528.91;12143940;19;20285;-84
2022/10/26 15:08:45;;;;;;;1.83;1.00;;;20.20;58.70;;;19.15;60.12;101514.50;12143517;19;20332;-85
2022/10/26 15:12:48;;;;;;;4.50;1.00;;;20.20;58.80;;;19.19;60.22;101537.13;12144530;19;20018;-85
2022/10/26 15:16:54;;;;;;;0.80;0.80;;;20.10;59.00;;;19.08;59.97;101534.47;12141112;19;20591;-84
2022/10/26 15:20:56;;;;;;;3.70;0.90;;;20.10;59.00;;;18.83;60.01;101503.78;12146751;19;20014;-84
2022/10/26 15:25:03;;;;;;;0.77;0.77;;;19.90;58.90;;;18.73;59.78;101506.25;12143675;19;20402;-84
2022/10/26 15:29:24;;;;;;;1.55;0.90;;;19.80;59.00;;;18.78;59.89;101530.59;12140006;19;20022;-84
2022/10/26 15:33:26;;;;;;;1.02;0.80;;;19.80;59.00;;;18.74;60.02;101532.66;12152066;19;20014;-85
2022/10/26 15:37:28;;;;;;;0.90;0.70;;;19.60;59.00;;;18.70;59.77;101540.91;12148230;19;20440;-83
2022/10/26 15:41:34;;;;;;;1.60;1.50;;;19.60;59.50;;;18.57;59.94;101541.81;12147715;19;20808;-83
2022/10/26 15:45:46;;;;;;;2.47;1.00;;;19.50;59.10;;;18.48;60.05;101542.53;12145620;19;20015;-84
2022/10/26 15:49:48;;;;;;;2.33;0.70;;;19.40;59.10;;;18.41;60.19;101538.66;12146981;19;20010;-86
2022/10/26 15:53:51;;;;;;;1.42;0.77;;;19.10;59.10;;;18.31;60.00;101535.03;12156557;19;20050;-86
2022/10/26 15:57:52;;;;;;;0.98;0.73;;;19.30;59.20;;;18.14;60.03;101526.53;12141287;19;20391;-84
2022/10/26 16:01:54;;;;;;;1.15;0.90;;;19.10;59.20;;;18.11;59.77;101528.56;12146820;19;20021;-85
2022/10/26 16:05:59;;;;;;;9.07;2.78;;;19.00;59.40;;;18.03;60.07;101547.63;12146043;19;20407;-84
2022/10/26 16:10:01;;;;;;;11.27;4.22;;;18.90;59.50;;;18.03;60.00;101560.84;12145824;19;20043;-87
2022/10/26 16:14:02;;;;;;;12.15;4.10;;;18.90;59.30;;;17.97;60.23;101563.13;12147929;19;20112;-84
2022/10/26 16:18:04;;;;;;;9.00;4.00;;;18.80;59.70;;;17.99;60.32;101577.06;12143136;19;20026;-85
2022/10/26 16:22:06;;;;;;;14.18;4.00;;;18.80;59.90;;;17.88;60.28;101562.00;12145432;19;20022;-85
2022/10/26 16:26:08;;;;;;;4.90;2.42;;;18.70;59.80;;;17.84;60.12;101563.16;12142861;19;20022;-85
2022/10/26 16:30:11;;;;;;;2.70;1.77;;;18.70;59.70;;;17.79;60.04;101557.34;12143240;19;20029;-85
2022/10/26 16:34:13;;;;;;;6.65;4.65;;;18.60;59.60;;;17.80;60.32;101559.06;12148263;19;20059;-85
2022/10/26 16:38:15;;;;;;;9.80;5.18;;;18.60;59.70;;;17.73;59.97;101561.25;12140566;19;20817;-85
2022/10/26 16:42:16;;;;;;;7.22;4.68;;;18.50;59.60;;;17.39;60.21;101523.19;12144381;19;20018;-84
2022/10/26 16:46:20;;;;;;;7.10;5.05;;;18.50;59.60;;;17.65;60.28;101579.47;12141685;19;20106;-85
2022/10/26 16:50:23;;;;;;;5.05;3.63;;;18.50;59.60;;;17.60;60.11;101566.56;12144117;19;20046;-85
2022/10/26 16:54:24;;;;;;;3.53;2.70;;;18.40;59.70;;;17.59;60.15;101580.75;12153944;19;20018;-85
2022/10/26 16:58:26;;;;;;;2.25;2.05;;;18.30;59.80;;;17.54;60.11;101582.84;12154605;19;20098;-85
2022/10/26 17:02:28;;;;;;;2.22;2.00;;;18.30;59.80;;;17.50;60.15;101580.53;12160602;19;20014;-85
2022/10/26 17:06:29;;;;;;;2.95;1.30;;;18.30;59.80;;;17.37;60.16;101570.00;12153902;19;20016;-84